Time;durP1;ratioP1;P1;durP2;ratioP2;P2;SDS_P1;SDS_P2;PMS_P1;PMS_P2;Temp;Humidity;BMP_temperature;BMP_pressure;BME280_temperature;BME280_humidity;BME280_pressure;Samples;Min_cycle;Max_cycle;Signal;HPM_P1;HPM_P2
2022/10/10 00:00:29;;;;;;;4.50;3.67;;;8.10;99.90;;;;;;2086189;28;20021;-71
2022/10/10 00:01:31;;;;;;;4.78;3.85;;;8.00;99.90;;;;;;2085503;28;20017;-71
2022/10/10 00:02:33;;;;;;;4.78;3.80;;;8.00;99.90;;;;;;2085789;28;20052;-71
2022/10/10 00:03:34;;;;;;;4.00;3.60;;;8.00;99.90;;;;;;2083723;28;20029;-71
2022/10/10 00:04:35;;;;;;;4.60;3.95;;;8.10;99.90;;;;;;2087141;28;20024;-71
2022/10/10 00:05:37;;;;;;;4.47;3.58;;;8.00;99.90;;;;;;2085096;28;20025;-71
2022/10/10 00:06:37;;;;;;;6.15;4.50;;;8.00;99.90;;;;;;2084613;28;20029;-71
2022/10/10 00:07:38;;;;;;;4.20;3.80;;;8.00;99.90;;;;;;2086044;28;21048;-71
2022/10/10 00:08:39;;;;;;;4.68;4.07;;;8.00;99.90;;;;;;2085695;28;20056;-71
2022/10/10 00:09:39;;;;;;;4.10;3.60;;;8.00;99.90;;;;;;2086982;28;20033;-71
2022/10/10 00:10:40;;;;;;;4.88;3.75;;;8.00;99.90;;;;;;2086905;28;20682;-71
2022/10/10 00:11:40;;;;;;;5.40;4.00;;;8.00;99.90;;;;;;2086098;28;20104;-71
2022/10/10 00:12:41;;;;;;;4.40;3.60;;;8.00;99.90;;;;;;2085888;28;20097;-71
2022/10/10 00:13:42;;;;;;;7.15;4.20;;;8.00;99.90;;;;;;2085657;28;20048;-71
2022/10/10 00:14:43;;;;;;;5.78;3.95;;;8.00;99.90;;;;;;2086571;28;20111;-71
2022/10/10 00:15:43;;;;;;;5.93;3.88;;;8.00;99.90;;;;;;2084659;28;20024;-71
2022/10/10 00:16:44;;;;;;;6.80;4.10;;;8.00;99.90;;;;;;2086249;28;20021;-71
2022/10/10 00:17:44;;;;;;;4.40;4.00;;;8.00;99.90;;;;;;2083891;28;20433;-71
2022/10/10 00:18:45;;;;;;;4.10;3.67;;;8.00;99.90;;;;;;2086241;28;20112;-71
2022/10/10 00:19:46;;;;;;;7.10;4.20;;;7.90;99.90;;;;;;2085713;28;20123;-71
2022/10/10 00:20:48;;;;;;;3.50;3.20;;;7.90;99.90;;;;;;2085954;28;20029;-71
2022/10/10 00:21:49;;;;;;;4.93;4.32;;;7.90;99.90;;;;;;2086507;28;20366;-71
2022/10/10 00:22:49;;;;;;;6.35;4.05;;;8.00;99.90;;;;;;2084723;28;20086;-71
2022/10/10 00:23:50;;;;;;;4.18;3.78;;;7.90;99.90;;;;;;2086051;28;20500;-71
2022/10/10 00:24:51;;;;;;;4.30;3.53;;;7.90;99.90;;;;;;2086449;28;20017;-71
2022/10/10 00:25:52;;;;;;;4.68;3.63;;;7.90;99.90;;;;;;2085031;28;20044;-71
2022/10/10 00:26:52;;;;;;;7.32;4.30;;;7.90;99.90;;;;;;2086700;28;20132;-71
2022/10/10 00:27:53;;;;;;;5.60;4.20;;;7.90;99.90;;;;;;2085606;28;20039;-71
2022/10/10 00:28:53;;;;;;;6.15;3.78;;;7.90;99.90;;;;;;2084958;28;20056;-71
2022/10/10 00:29:54;;;;;;;4.72;3.70;;;7.90;99.90;;;;;;2085451;28;20033;-71
2022/10/10 00:30:55;;;;;;;5.28;3.90;;;7.90;99.90;;;;;;2085458;28;20075;-71
2022/10/10 00:31:55;;;;;;;4.32;3.85;;;7.90;99.90;;;;;;2086245;28;20579;-71
2022/10/10 00:32:58;;;;;;;5.43;4.18;;;7.90;99.90;;;;;;2086213;28;20036;-71
2022/10/10 00:33:58;;;;;;;5.70;4.50;;;7.90;99.90;;;;;;2086233;28;20033;-71
2022/10/10 00:34:59;;;;;;;5.45;4.65;;;7.90;99.90;;;;;;2086882;28;20488;-71
2022/10/10 00:35:59;;;;;;;6.25;4.10;;;7.90;99.90;;;;;;2085865;28;20423;-71
2022/10/10 00:37:00;;;;;;;6.32;3.70;;;7.90;99.90;;;;;;2086831;28;20032;-71
2022/10/10 00:38:01;;;;;;;6.05;3.88;;;7.90;99.90;;;;;;2085831;28;20029;-71
2022/10/10 00:39:01;;;;;;;6.75;4.22;;;7.90;99.90;;;;;;2086200;28;20052;-71
2022/10/10 00:40:03;;;;;;;5.53;4.05;;;7.80;99.90;;;;;;2085380;28;20070;-71
2022/10/10 00:41:04;;;;;;;4.05;3.72;;;7.90;99.90;;;;;;2086461;28;20025;-71
2022/10/10 00:42:05;;;;;;;5.63;3.72;;;7.90;99.90;;;;;;2085107;28;20832;-71
2022/10/10 00:43:08;;;;;;;6.05;4.25;;;7.90;99.90;;;;;;2086272;28;20033;-71
2022/10/10 00:44:12;;;;;;;7.97;4.18;;;7.90;99.90;;;;;;2085821;28;20031;-71
2022/10/10 00:45:18;;;;;;;5.78;4.50;;;7.90;99.90;;;;;;2085211;28;20029;-71
2022/10/10 00:46:19;;;;;;;5.03;4.45;;;7.90;99.90;;;;;;2085865;28;20032;-71
2022/10/10 00:47:19;;;;;;;6.45;4.07;;;7.90;99.90;;;;;;2086186;28;20033;-71
2022/10/10 00:48:36;;;;;;;6.00;4.25;;;7.90;99.90;;;;;;2086338;28;20542;-71
2022/10/10 00:49:43;;;;;;;5.25;3.70;;;7.80;99.90;;;;;;2085989;28;20033;-71
2022/10/10 00:50:46;;;;;;;4.95;4.03;;;7.80;99.90;;;;;;2085655;28;20459;-71
2022/10/10 00:51:49;;;;;;;4.57;4.15;;;7.80;99.90;;;;;;2084452;28;20036;-71
2022/10/10 00:52:50;;;;;;;4.90;3.80;;;7.80;99.90;;;;;;2084804;28;20040;-71
2022/10/10 00:53:55;;;;;;;4.35;3.95;;;7.80;99.90;;;;;;2085368;28;20017;-71
2022/10/10 00:54:55;;;;;;;4.85;4.00;;;7.80;99.90;;;;;;2084678;28;20026;-71
2022/10/10 00:55:56;;;;;;;3.95;3.38;;;7.80;99.90;;;;;;2085848;28;20017;-71
2022/10/10 00:57:08;;;;;;;4.68;3.78;;;7.80;99.90;;;;;;2085434;28;20074;-71
2022/10/10 00:58:09;;;;;;;6.88;3.85;;;7.80;99.90;;;;;;2085633;28;20103;-71
2022/10/10 00:59:11;;;;;;;5.25;3.90;;;7.80;99.90;;;;;;2083554;28;20041;-71
2022/10/10 01:00:13;;;;;;;5.30;4.00;;;7.80;99.90;;;;;;2085540;28;20505;-72
2022/10/10 01:01:14;;;;;;;4.53;4.10;;;7.80;99.90;;;;;;2084635;28;20029;-72
2022/10/10 01:02:14;;;;;;;4.72;3.97;;;7.80;99.90;;;;;;2086083;28;20055;-72
2022/10/10 01:03:15;;;;;;;5.60;3.95;;;7.80;99.90;;;;;;2084564;28;20025;-72
2022/10/10 01:04:47;;;;;;;4.13;3.72;;;7.80;99.90;;;;;;2085759;28;20029;-72
2022/10/10 01:05:49;;;;;;;4.38;3.97;;;7.80;99.90;;;;;;2046202;28;20037;-72
2022/10/10 01:06:50;;;;;;;4.40;3.78;;;7.80;99.90;;;;;;2074219;28;20064;-72
2022/10/10 01:07:52;;;;;;;4.97;4.03;;;7.80;99.90;;;;;;2085000;28;20028;-72
2022/10/10 01:08:53;;;;;;;6.03;4.30;;;7.80;99.90;;;;;;2085080;28;20070;-72
2022/10/10 01:09:57;;;;;;;5.25;4.00;;;7.70;99.90;;;;;;2085902;28;20870;-72
2022/10/10 01:11:25;;;;;;;4.68;3.80;;;7.70;99.90;;;;;;2085408;28;20057;-72
2022/10/10 01:12:50;;;;;;;5.03;4.00;;;7.70;99.90;;;;;;2084131;28;20013;-72
2022/10/10 01:14:04;;;;;;;6.72;3.80;;;7.70;99.90;;;;;;2085152;28;20025;-72
2022/10/10 01:15:31;;;;;;;5.35;4.35;;;7.70;99.90;;;;;;2085342;28;20642;-72
2022/10/10 01:16:40;;;;;;;4.07;3.65;;;7.70;99.90;;;;;;2085251;28;20024;-72
2022/10/10 01:17:51;;;;;;;7.55;4.35;;;7.70;99.90;;;;;;2084596;28;20060;-72
2022/10/10 01:19:22;;;;;;;5.57;4.15;;;7.70;99.90;;;;;;2086671;28;20055;-72
2022/10/10 01:20:43;;;;;;;6.10;3.85;;;7.60;99.90;;;;;;2086565;28;20017;-72
2022/10/10 01:21:56;;;;;;;3.75;3.22;;;7.60;99.90;;;;;;2086230;28;20032;-72
2022/10/10 01:23:22;;;;;;;6.82;3.20;;;7.60;99.90;;;;;;2078030;28;20774;-72
2022/10/10 01:24:44;;;;;;;4.75;3.42;;;7.60;99.90;;;;;;2047692;28;20042;-72
2022/10/10 01:26:11;;;;;;;3.72;2.83;;;7.60;99.90;;;;;;2084513;28;20358;-72
2022/10/10 01:27:44;;;;;;;4.38;2.95;;;7.60;99.90;;;;;;2086573;28;20047;-72
2022/10/10 01:28:57;;;;;;;6.32;3.40;;;7.60;99.90;;;;;;2043839;28;20047;-72
2022/10/10 01:30:06;;;;;;;3.53;3.00;;;7.70;99.90;;;;;;2049711;28;20533;-72
2022/10/10 01:31:10;;;;;;;4.35;2.42;;;7.70;99.90;;;;;;2085004;28;20539;-72
2022/10/10 01:32:25;;;;;;;3.45;2.78;;;7.70;99.90;;;;;;2085903;28;20025;-72
2022/10/10 01:33:32;;;;;;;3.72;2.60;;;7.80;99.90;;;;;;2085422;28;20104;-72
2022/10/10 01:34:57;;;;;;;5.68;2.95;;;7.80;99.90;;;;;;2083506;28;20561;-72
2022/10/10 01:36:18;;;;;;;2.67;2.47;;;7.80;99.90;;;;;;2084535;28;20032;-72
2022/10/10 01:37:57;;;;;;;3.30;2.78;;;7.90;99.90;;;;;;2085482;28;20051;-73
2022/10/10 01:39:11;;;;;;;6.53;3.00;;;7.90;99.90;;;;;;2086572;28;20032;-72
2022/10/10 01:40:15;;;;;;;2.88;2.60;;;7.90;99.90;;;;;;2086675;28;20025;-72
2022/10/10 01:41:25;;;;;;;3.85;2.75;;;7.90;99.90;;;;;;2084278;28;20033;-72
2022/10/10 01:42:35;;;;;;;3.22;2.42;;;7.90;99.90;;;;;;2084802;28;20025;-71
2022/10/10 01:43:36;;;;;;;4.70;2.30;;;7.90;99.90;;;;;;2085085;28;20040;-71
2022/10/10 01:44:37;;;;;;;5.55;2.75;;;7.90;99.90;;;;;;2084859;28;20064;-71
2022/10/10 01:45:44;;;;;;;9.90;3.08;;;8.00;99.90;;;;;;2077983;28;20080;-71
2022/10/10 01:46:44;;;;;;;5.45;2.40;;;8.00;99.90;;;;;;2078899;28;20025;-71
2022/10/10 01:47:46;;;;;;;4.57;2.53;;;8.00;99.90;;;;;;2085706;28;20671;-71
2022/10/10 01:48:49;;;;;;;2.63;2.30;;;8.10;99.90;;;;;;2085125;28;20026;-72
2022/10/10 01:49:54;;;;;;;4.07;2.42;;;8.10;99.90;;;;;;2084601;28;20029;-72
2022/10/10 01:51:06;;;;;;;3.17;2.38;;;8.10;99.90;;;;;;2084970;28;20021;-72
2022/10/10 01:52:26;;;;;;;4.75;2.38;;;8.20;99.90;;;;;;2087873;28;20025;-71
2022/10/10 01:53:49;;;;;;;4.18;2.30;;;8.20;99.90;;;;;;2086898;28;20021;-71
2022/10/10 01:55:08;;;;;;;5.75;2.60;;;8.20;99.90;;;;;;2084465;28;20021;-71
2022/10/10 01:56:23;;;;;;;5.53;2.40;;;8.30;99.90;;;;;;2087659;28;20021;-71
2022/10/10 01:57:29;;;;;;;2.90;2.35;;;8.30;99.90;;;;;;2087948;28;20120;-71
2022/10/10 01:58:41;;;;;;;4.65;2.08;;;8.40;99.90;;;;;;2083760;28;20022;-71
2022/10/10 01:59:51;;;;;;;3.75;2.35;;;8.40;99.90;;;;;;2086525;28;20033;-71
2022/10/10 02:01:08;;;;;;;2.72;2.53;;;8.40;99.90;;;;;;2087481;28;20021;-71
2022/10/10 02:02:35;;;;;;;4.75;2.63;;;8.50;99.90;;;;;;2086798;28;20112;-71
2022/10/10 02:03:43;;;;;;;2.95;2.15;;;8.50;99.90;;;;;;2086604;28;20033;-71
2022/10/10 02:04:55;;;;;;;6.85;2.35;;;8.50;99.90;;;;;;2085719;28;20071;-71
2022/10/10 02:06:02;;;;;;;3.92;2.30;;;8.60;99.90;;;;;;2084366;28;20029;-71
2022/10/10 02:07:13;;;;;;;3.42;2.30;;;8.60;99.90;;;;;;2086877;28;20027;-71
2022/10/10 02:08:21;;;;;;;3.22;2.30;;;8.70;99.90;;;;;;2087688;28;20029;-71
2022/10/10 02:09:30;;;;;;;2.40;2.20;;;8.70;99.90;;;;;;2087240;28;20070;-71
2022/10/10 02:10:35;;;;;;;4.28;2.45;;;8.80;99.90;;;;;;2087509;28;20043;-71
2022/10/10 02:11:38;;;;;;;4.43;2.25;;;8.80;99.90;;;;;;2086614;28;20734;-72
2022/10/10 02:12:39;;;;;;;2.45;2.17;;;8.80;99.90;;;;;;2086003;28;20075;-72
2022/10/10 02:13:40;;;;;;;4.75;2.50;;;8.90;99.90;;;;;;2086244;28;20072;-72
2022/10/10 02:14:44;;;;;;;5.15;2.60;;;8.90;99.90;;;;;;2085921;28;20037;-72
2022/10/10 02:15:50;;;;;;;3.92;2.47;;;8.90;99.90;;;;;;2086007;28;20114;-72
2022/10/10 02:16:53;;;;;;;6.15;2.78;;;8.90;99.90;;;;;;2086038;28;20032;-72
2022/10/10 02:17:56;;;;;;;4.47;2.17;;;8.90;99.90;;;;;;2086067;28;20167;-72
2022/10/10 02:18:58;;;;;;;2.72;2.30;;;9.00;99.90;;;;;;2087930;28;20016;-72
2022/10/10 02:19:59;;;;;;;3.58;2.38;;;9.00;99.90;;;;;;2087153;28;20037;-72
2022/10/10 02:21:03;;;;;;;4.95;2.53;;;9.10;99.90;;;;;;2087276;28;20025;-72
2022/10/10 02:22:05;;;;;;;4.18;2.38;;;9.10;99.90;;;;;;2087755;28;20086;-72
2022/10/10 02:23:07;;;;;;;5.88;2.22;;;9.10;99.90;;;;;;2086551;28;20025;-72
2022/10/10 02:24:11;;;;;;;3.63;2.10;;;9.20;99.90;;;;;;2086110;28;20029;-72
2022/10/10 02:25:12;;;;;;;2.85;2.45;;;9.20;99.90;;;;;;2086980;28;20127;-72
2022/10/10 02:26:16;;;;;;;4.10;2.35;;;9.30;99.90;;;;;;2085665;28;20043;-72
2022/10/10 02:27:33;;;;;;;2.80;2.22;;;9.30;99.90;;;;;;2087379;28;20044;-72
2022/10/10 02:28:40;;;;;;;3.55;2.38;;;9.30;99.90;;;;;;2086320;28;20486;-72
2022/10/10 02:29:42;;;;;;;3.30;2.40;;;9.30;99.90;;;;;;2077567;28;20032;-72
2022/10/10 02:30:46;;;;;;;3.10;2.25;;;9.30;99.90;;;;;;2076636;28;20022;-72
2022/10/10 02:31:55;;;;;;;2.88;2.58;;;9.40;99.90;;;;;;2087510;28;20021;-72
2022/10/10 02:33:00;;;;;;;3.67;2.63;;;9.40;99.90;;;;;;2083608;28;20025;-72
2022/10/10 02:34:13;;;;;;;4.22;2.35;;;9.50;99.90;;;;;;2085172;28;20029;-72
2022/10/10 02:35:19;;;;;;;3.90;2.15;;;9.50;99.90;;;;;;2087251;28;20032;-72
2022/10/10 02:36:21;;;;;;;2.92;2.20;;;9.50;99.90;;;;;;2086256;28;20075;-72
2022/10/10 02:37:23;;;;;;;4.15;2.17;;;9.60;99.90;;;;;;2088133;28;20033;-72
2022/10/10 02:38:26;;;;;;;2.95;2.55;;;9.60;99.90;;;;;;2085318;28;20509;-72
2022/10/10 02:39:32;;;;;;;3.88;2.15;;;9.70;99.90;;;;;;2087339;28;20025;-72
2022/10/10 02:40:34;;;;;;;4.45;2.22;;;9.70;99.90;;;;;;2087138;28;20036;-72
2022/10/10 02:41:36;;;;;;;4.15;2.63;;;9.70;99.90;;;;;;2086616;28;20040;-72
2022/10/10 02:42:37;;;;;;;4.78;2.58;;;9.80;99.90;;;;;;2087440;28;20033;-72
2022/10/10 02:43:38;;;;;;;3.63;2.10;;;9.80;99.90;;;;;;2087286;28;20033;-72
2022/10/10 02:44:39;;;;;;;2.50;2.00;;;9.90;99.90;;;;;;2085675;28;20566;-72
2022/10/10 02:45:41;;;;;;;5.82;2.50;;;9.90;99.90;;;;;;2083938;28;20029;-72
2022/10/10 02:46:41;;;;;;;3.20;2.35;;;9.90;99.90;;;;;;2087307;28;20159;-72
2022/10/10 02:47:44;;;;;;;3.45;2.45;;;9.90;99.90;;;;;;2085638;28;20799;-72
2022/10/10 02:48:44;;;;;;;4.22;2.45;;;10.00;99.90;;;;;;2087079;28;20028;-72
2022/10/10 02:49:45;;;;;;;3.70;2.35;;;10.00;99.90;;;;;;2086955;28;20017;-72
2022/10/10 02:50:46;;;;;;;4.32;2.55;;;10.00;99.90;;;;;;2086437;28;20074;-72
2022/10/10 02:51:46;;;;;;;6.55;2.53;;;10.10;99.90;;;;;;2087320;28;20534;-72
2022/10/10 02:52:47;;;;;;;4.22;2.10;;;10.10;99.90;;;;;;2086588;28;20037;-72
2022/10/10 02:53:47;;;;;;;3.67;2.63;;;10.10;99.90;;;;;;2086157;28;20392;-72
2022/10/10 02:54:48;;;;;;;3.78;2.33;;;10.10;99.90;;;;;;2086545;28;20021;-72
2022/10/10 02:55:48;;;;;;;2.70;2.08;;;10.10;99.90;;;;;;2085508;28;20021;-72
2022/10/10 02:56:49;;;;;;;6.85;2.42;;;10.10;99.90;;;;;;2087087;28;20104;-72
2022/10/10 02:57:50;;;;;;;4.25;2.53;;;10.10;99.90;;;;;;2086315;28;20040;-72
2022/10/10 02:58:50;;;;;;;3.85;2.25;;;10.20;99.90;;;;;;2085407;28;20021;-72
2022/10/10 02:59:51;;;;;;;2.92;2.03;;;10.10;99.90;;;;;;2086888;28;20082;-72
2022/10/10 03:00:51;;;;;;;3.60;2.38;;;10.20;99.90;;;;;;2085565;28;20048;-72
2022/10/10 03:01:52;;;;;;;2.95;2.00;;;10.20;99.90;;;;;;2086227;28;20032;-72
2022/10/10 03:02:53;;;;;;;7.95;2.50;;;10.20;99.90;;;;;;2084977;28;20040;-72
2022/10/10 03:03:53;;;;;;;3.72;2.53;;;10.20;99.90;;;;;;2086290;28;20056;-72
2022/10/10 03:04:54;;;;;;;4.18;2.22;;;10.30;99.90;;;;;;2086512;28;20043;-72
2022/10/10 03:05:54;;;;;;;5.80;2.20;;;10.30;99.90;;;;;;2085319;28;20036;-72
2022/10/10 03:06:55;;;;;;;4.35;2.38;;;10.30;99.90;;;;;;2086367;28;20139;-72
2022/10/10 03:07:55;;;;;;;4.65;2.35;;;10.40;99.90;;;;;;2086585;28;20104;-72
2022/10/10 03:08:56;;;;;;;4.55;2.38;;;10.40;99.90;;;;;;2087500;28;20033;-72
2022/10/10 03:09:56;;;;;;;4.65;2.20;;;10.40;99.90;;;;;;2085992;28;20481;-72
2022/10/10 03:11:00;;;;;;;5.53;2.20;;;10.40;99.90;;;;;;2086033;28;20048;-72
2022/10/10 03:12:00;;;;;;;4.05;2.05;;;10.40;99.90;;;;;;2085131;28;20127;-72
2022/10/10 03:13:01;;;;;;;5.47;2.38;;;10.50;99.90;;;;;;2086128;28;20095;-72
2022/10/10 03:14:01;;;;;;;5.63;2.60;;;10.50;99.90;;;;;;2085585;28;20532;-72
2022/10/10 03:15:06;;;;;;;3.60;2.50;;;10.50;99.90;;;;;;2085830;28;20033;-72
2022/10/10 03:16:06;;;;;;;8.23;2.80;;;10.50;99.90;;;;;;2083857;28;20099;-72
2022/10/10 03:17:07;;;;;;;4.00;2.60;;;10.50;99.90;;;;;;2086940;28;20021;-72
2022/10/10 03:18:07;;;;;;;6.68;2.90;;;10.50;99.90;;;;;;2086912;28;20060;-72
2022/10/10 03:19:08;;;;;;;3.30;2.28;;;10.60;99.90;;;;;;2084221;28;20025;-72
2022/10/10 03:20:10;;;;;;;3.15;2.45;;;10.60;99.90;;;;;;2085938;28;20385;-72
2022/10/10 03:21:10;;;;;;;2.53;2.25;;;10.60;99.90;;;;;;2086832;28;20024;-72
2022/10/10 03:22:11;;;;;;;3.38;2.30;;;10.60;99.90;;;;;;2086472;28;20109;-71
2022/10/10 03:23:12;;;;;;;3.00;2.42;;;10.60;99.90;;;;;;2086033;28;20041;-72
2022/10/10 03:24:13;;;;;;;5.07;2.85;;;10.60;99.90;;;;;;2086451;28;20056;-72
2022/10/10 03:25:13;;;;;;;5.55;2.70;;;10.60;99.90;;;;;;2086955;28;20029;-72
2022/10/10 03:26:14;;;;;;;4.45;2.35;;;10.60;99.90;;;;;;2085774;28;20044;-71
2022/10/10 03:27:14;;;;;;;3.55;2.55;;;10.60;99.90;;;;;;2079302;28;20030;-72
2022/10/10 03:28:15;;;;;;;3.50;2.42;;;10.60;99.90;;;;;;2079269;28;20883;-72
2022/10/10 03:29:16;;;;;;;4.10;2.40;;;10.60;99.90;;;;;;2085991;28;20025;-72
2022/10/10 03:30:17;;;;;;;7.78;2.55;;;10.60;99.90;;;;;;2086527;28;20023;-72
2022/10/10 03:31:17;;;;;;;5.25;2.50;;;10.70;99.90;;;;;;2086234;28;20540;-72
2022/10/10 03:32:18;;;;;;;3.72;2.35;;;10.70;99.90;;;;;;2085512;28;20021;-72
2022/10/10 03:33:18;;;;;;;7.93;3.20;;;10.70;99.90;;;;;;2087019;28;20112;-71
2022/10/10 03:34:19;;;;;;;6.32;2.25;;;10.70;99.90;;;;;;2085907;28;20025;-71
2022/10/10 03:35:19;;;;;;;3.03;2.38;;;10.80;99.90;;;;;;2086661;28;20063;-71
2022/10/10 03:36:20;;;;;;;6.88;2.75;;;10.70;99.90;;;;;;2086296;28;20407;-71
2022/10/10 03:37:21;;;;;;;4.72;2.65;;;10.80;99.90;;;;;;2085030;28;20036;-71
2022/10/10 03:38:21;;;;;;;3.17;2.33;;;10.80;99.90;;;;;;2086142;28;20037;-72
2022/10/10 03:39:22;;;;;;;5.35;2.50;;;10.80;99.90;;;;;;2085654;28;20026;-72
2022/10/10 03:40:23;;;;;;;4.30;2.30;;;10.80;99.90;;;;;;2086281;28;20033;-72
2022/10/10 03:41:23;;;;;;;5.93;2.10;;;10.80;99.90;;;;;;2086942;28;20036;-72
2022/10/10 03:42:24;;;;;;;4.15;2.53;;;10.80;99.90;;;;;;2085766;28;20052;-72
2022/10/10 03:43:24;;;;;;;5.25;2.85;;;10.90;99.90;;;;;;2086633;28;20025;-72
2022/10/10 03:44:25;;;;;;;7.85;2.65;;;10.90;99.90;;;;;;2085893;28;20028;-72
2022/10/10 03:45:25;;;;;;;5.10;2.50;;;10.90;99.90;;;;;;2085993;28;20040;-72
2022/10/10 03:46:26;;;;;;;2.92;2.53;;;10.90;99.90;;;;;;2085929;28;20564;-72
2022/10/10 03:47:27;;;;;;;5.85;2.95;;;10.90;99.90;;;;;;2085812;28;20025;-72
2022/10/10 03:48:27;;;;;;;3.67;2.42;;;10.90;99.90;;;;;;2087187;28;20103;-71
2022/10/10 03:49:28;;;;;;;3.92;2.67;;;10.90;99.90;;;;;;2087198;28;20021;-71
2022/10/10 03:50:28;;;;;;;8.40;2.42;;;10.90;99.90;;;;;;2086306;28;20411;-72
2022/10/10 03:51:29;;;;;;;3.28;2.40;;;11.00;99.90;;;;;;2085064;28;20044;-72
2022/10/10 03:52:30;;;;;;;3.70;2.03;;;11.00;99.90;;;;;;2085590;28;20524;-72
2022/10/10 03:53:30;;;;;;;4.22;2.30;;;11.00;99.90;;;;;;2086471;28;20027;-72
2022/10/10 03:54:31;;;;;;;6.57;2.70;;;11.00;99.90;;;;;;2083801;28;20118;-72
2022/10/10 03:55:32;;;;;;;7.07;2.70;;;11.00;99.90;;;;;;2085195;28;20017;-72
2022/10/10 03:56:32;;;;;;;4.57;2.80;;;11.00;99.90;;;;;;2086397;28;20385;-72
2022/10/10 03:57:33;;;;;;;5.20;2.47;;;11.00;99.90;;;;;;2084812;28;20080;-72
2022/10/10 03:58:34;;;;;;;3.60;2.53;;;11.00;99.90;;;;;;2086006;28;20040;-72
2022/10/10 03:59:35;;;;;;;6.97;2.50;;;11.10;99.90;;;;;;2086957;28;20461;-72
2022/10/10 04:00:35;;;;;;;3.53;2.20;;;11.10;99.90;;;;;;2085758;28;20823;-72
2022/10/10 04:01:36;;;;;;;4.13;2.83;;;11.10;99.90;;;;;;2085328;28;20056;-71
2022/10/10 04:02:36;;;;;;;5.32;2.83;;;11.10;99.90;;;;;;2083743;28;20023;-71
2022/10/10 04:03:37;;;;;;;2.35;2.08;;;11.10;99.90;;;;;;2085587;28;20115;-72
2022/10/10 04:04:38;;;;;;;6.10;2.42;;;11.10;99.90;;;;;;2086579;28;20028;-72
2022/10/10 04:05:38;;;;;;;4.10;2.70;;;11.10;99.90;;;;;;2086380;28;20078;-72
2022/10/10 04:06:39;;;;;;;3.30;2.55;;;11.10;99.90;;;;;;2087106;28;20041;-71
2022/10/10 04:07:41;;;;;;;7.70;2.65;;;11.20;99.90;;;;;;2084648;28;20484;-72
2022/10/10 04:08:41;;;;;;;4.90;2.47;;;11.20;99.90;;;;;;2085979;28;20100;-72
2022/10/10 04:09:42;;;;;;;3.22;2.22;;;11.20;99.90;;;;;;2087038;28;20100;-72
2022/10/10 04:10:42;;;;;;;6.53;2.85;;;11.20;99.90;;;;;;2085736;28;20025;-72
2022/10/10 04:11:43;;;;;;;4.88;2.60;;;11.20;99.90;;;;;;2086296;28;20054;-72
2022/10/10 04:12:43;;;;;;;5.55;2.83;;;11.20;99.90;;;;;;2084871;28;20086;-72
2022/10/10 04:13:44;;;;;;;5.03;2.60;;;11.20;99.90;;;;;;2084297;28;20096;-72
2022/10/10 04:14:44;;;;;;;5.40;2.97;;;11.20;99.90;;;;;;2085463;28;20028;-72
2022/10/10 04:15:48;;;;;;;8.32;2.85;;;11.20;99.90;;;;;;2084100;28;20018;-72
2022/10/10 04:16:49;;;;;;;3.63;2.33;;;11.20;99.90;;;;;;2086877;28;20025;-72
2022/10/10 04:17:50;;;;;;;4.32;2.60;;;11.20;99.90;;;;;;2086852;28;20025;-72
2022/10/10 04:18:50;;;;;;;5.53;2.42;;;11.20;99.90;;;;;;2085801;28;20017;-72
2022/10/10 04:19:51;;;;;;;3.15;2.40;;;11.20;99.90;;;;;;2085587;28;20017;-72
2022/10/10 04:20:52;;;;;;;3.70;2.28;;;11.20;99.90;;;;;;2085896;28;20029;-72
2022/10/10 04:21:52;;;;;;;5.38;2.40;;;11.20;99.90;;;;;;2085446;28;20059;-72
2022/10/10 04:22:53;;;;;;;3.15;2.35;;;11.20;99.90;;;;;;2085979;28;20033;-72
2022/10/10 04:23:53;;;;;;;2.58;2.38;;;11.20;99.90;;;;;;2082716;28;20044;-72
2022/10/10 04:24:54;;;;;;;5.07;2.80;;;11.20;99.90;;;;;;2085874;28;20037;-72
2022/10/10 04:25:55;;;;;;;3.05;2.30;;;11.20;99.90;;;;;;2084027;28;20049;-72
2022/10/10 04:26:56;;;;;;;6.18;3.17;;;11.20;99.90;;;;;;2077793;28;20516;-72
2022/10/10 04:27:56;;;;;;;7.72;2.50;;;11.20;99.90;;;;;;2076916;28;20128;-72
2022/10/10 04:28:57;;;;;;;6.05;2.95;;;11.20;99.90;;;;;;2084901;28;20024;-72
2022/10/10 04:29:58;;;;;;;5.32;2.53;;;11.10;99.90;;;;;;2085983;28;20055;-72
2022/10/10 04:30:58;;;;;;;7.00;2.47;;;11.20;99.90;;;;;;2084874;28;20029;-72
2022/10/10 04:31:59;;;;;;;4.25;2.22;;;11.20;99.90;;;;;;2086070;28;20412;-72
2022/10/10 04:32:59;;;;;;;3.78;2.63;;;11.20;99.90;;;;;;2085811;28;20104;-71
2022/10/10 04:34:00;;;;;;;4.13;2.45;;;11.20;99.90;;;;;;2085429;28;20028;-71
2022/10/10 04:35:01;;;;;;;3.45;2.50;;;11.20;99.90;;;;;;2084482;28;20484;-71
2022/10/10 04:36:01;;;;;;;4.00;2.88;;;11.20;99.90;;;;;;2085946;28;20025;-72
2022/10/10 04:37:02;;;;;;;3.42;3.08;;;11.20;99.90;;;;;;2085260;28;20030;-72
2022/10/10 04:38:03;;;;;;;6.38;3.22;;;11.20;99.90;;;;;;2085340;28;20044;-71
2022/10/10 04:39:03;;;;;;;5.50;2.83;;;11.20;99.90;;;;;;2085552;28;20025;-71
2022/10/10 04:40:05;;;;;;;4.32;2.60;;;11.20;99.90;;;;;;2076856;28;20085;-72
2022/10/10 04:41:05;;;;;;;7.93;2.90;;;11.20;99.90;;;;;;2077626;28;20032;-72
2022/10/10 04:42:06;;;;;;;4.50;3.08;;;11.30;99.90;;;;;;2084801;28;20049;-72
2022/10/10 04:43:07;;;;;;;4.75;2.78;;;11.20;99.90;;;;;;2086209;28;20032;-72
2022/10/10 04:44:07;;;;;;;4.60;2.65;;;11.20;99.90;;;;;;2085024;28;20136;-72
2022/10/10 04:45:08;;;;;;;5.22;2.75;;;11.20;99.90;;;;;;2086154;28;20052;-72
2022/10/10 04:46:09;;;;;;;4.40;2.53;;;11.30;99.90;;;;;;2086020;28;20086;-72
2022/10/10 04:47:09;;;;;;;3.55;2.67;;;11.30;99.90;;;;;;2085352;28;20112;-72
2022/10/10 04:48:10;;;;;;;2.83;2.50;;;11.30;99.90;;;;;;2085166;28;20123;-72
2022/10/10 04:49:11;;;;;;;5.93;2.72;;;11.30;99.90;;;;;;2085927;28;20128;-72
2022/10/10 04:50:11;;;;;;;5.05;2.85;;;11.30;99.90;;;;;;2086408;28;20378;-72
2022/10/10 04:51:12;;;;;;;6.28;2.85;;;11.30;99.90;;;;;;2085623;28;20017;-72
2022/10/10 04:52:12;;;;;;;7.68;3.35;;;11.30;99.90;;;;;;2084271;28;20537;-72
2022/10/10 04:53:13;;;;;;;5.88;3.00;;;11.30;99.90;;;;;;2085006;28;20092;-72
2022/10/10 04:54:13;;;;;;;4.18;2.60;;;11.30;99.90;;;;;;2086679;28;20070;-72
2022/10/10 04:55:15;;;;;;;4.85;2.75;;;11.40;99.90;;;;;;2075678;28;20783;-72
2022/10/10 04:56:15;;;;;;;3.88;2.65;;;11.40;99.90;;;;;;2077283;28;20027;-72
2022/10/10 04:57:16;;;;;;;4.82;3.03;;;11.40;99.90;;;;;;2085006;28;20108;-72
2022/10/10 04:58:16;;;;;;;3.75;2.60;;;11.40;99.90;;;;;;2085938;28;20090;-72
2022/10/10 04:59:17;;;;;;;4.88;2.75;;;11.30;99.90;;;;;;2086322;28;20124;-72
2022/10/10 05:00:18;;;;;;;5.43;2.75;;;11.40;99.90;;;;;;2085905;28;20052;-72
2022/10/10 05:01:18;;;;;;;6.18;2.63;;;11.40;99.90;;;;;;2086702;28;20024;-72
2022/10/10 05:02:19;;;;;;;7.20;2.75;;;11.40;99.90;;;;;;2085715;28;20100;-72
2022/10/10 05:03:21;;;;;;;4.63;2.45;;;11.40;99.90;;;;;;2084780;28;20028;-72
2022/10/10 05:04:21;;;;;;;3.38;2.42;;;11.40;99.90;;;;;;2085083;28;20029;-72
2022/10/10 05:05:22;;;;;;;4.95;2.90;;;11.40;99.90;;;;;;2082802;28;20140;-72
2022/10/10 05:06:22;;;;;;;3.15;2.63;;;11.40;99.90;;;;;;2086120;28;20045;-72
2022/10/10 05:07:23;;;;;;;6.15;3.08;;;11.40;99.90;;;;;;2084427;28;20585;-72
2022/10/10 05:08:24;;;;;;;3.10;2.55;;;11.30;99.90;;;;;;2084088;28;20046;-72
2022/10/10 05:09:24;;;;;;;4.78;2.63;;;11.40;99.90;;;;;;2084866;28;20464;-72
2022/10/10 05:10:25;;;;;;;8.20;3.03;;;11.30;99.90;;;;;;2084791;28;20033;-72
2022/10/10 05:11:25;;;;;;;4.38;2.75;;;11.40;99.90;;;;;;2085737;28;20021;-72
2022/10/10 05:12:26;;;;;;;5.85;3.22;;;11.40;99.90;;;;;;2086557;28;20025;-72
2022/10/10 05:13:27;;;;;;;5.28;2.95;;;11.30;99.90;;;;;;2084894;28;20029;-72
2022/10/10 05:14:27;;;;;;;3.35;2.58;;;11.30;99.90;;;;;;2084420;28;20029;-72
2022/10/10 05:15:28;;;;;;;4.53;2.92;;;11.30;99.90;;;;;;2086302;28;20025;-72
2022/10/10 05:16:28;;;;;;;3.38;2.50;;;11.30;99.90;;;;;;2085336;28;20037;-72
2022/10/10 05:17:29;;;;;;;8.57;2.92;;;11.30;99.90;;;;;;2085179;28;20244;-72
2022/10/10 05:18:29;;;;;;;9.65;2.97;;;11.30;99.90;;;;;;2086470;28;20432;-72
2022/10/10 05:19:30;;;;;;;5.50;2.97;;;11.30;99.90;;;;;;2082861;28;20143;-72
2022/10/10 05:20:32;;;;;;;5.15;2.58;;;11.30;99.90;;;;;;2085430;28;20381;-72
2022/10/10 05:21:33;;;;;;;7.88;3.05;;;11.20;99.90;;;;;;2084087;28;20044;-72
2022/10/10 05:22:34;;;;;;;7.03;2.53;;;11.30;99.90;;;;;;2085650;28;20033;-71
2022/10/10 05:23:35;;;;;;;5.35;2.72;;;11.30;99.90;;;;;;2086219;28;20027;-71
2022/10/10 05:24:36;;;;;;;8.40;2.97;;;11.30;99.90;;;;;;2085221;28;20044;-71
2022/10/10 05:25:36;;;;;;;4.72;3.40;;;11.20;99.90;;;;;;2084267;28;20900;-71
2022/10/10 05:26:37;;;;;;;5.97;3.15;;;11.20;99.90;;;;;;2087595;28;20033;-71
2022/10/10 05:27:37;;;;;;;5.90;2.88;;;11.20;99.90;;;;;;2086890;28;20033;-71
2022/10/10 05:28:38;;;;;;;5.53;3.00;;;11.20;99.90;;;;;;2088118;28;20119;-71
2022/10/10 05:29:38;;;;;;;4.53;2.42;;;11.20;99.90;;;;;;2087947;28;20024;-71
2022/10/10 05:30:39;;;;;;;4.72;2.40;;;11.20;99.90;;;;;;2086785;28;20032;-71
2022/10/10 05:31:40;;;;;;;5.55;2.42;;;11.20;99.90;;;;;;2088076;28;20078;-71
2022/10/10 05:32:41;;;;;;;4.72;2.75;;;11.20;99.90;;;;;;2086521;28;20025;-71